createdAt,value
2023-03-01T00:03:22.496Z,-2.22
2023-03-01T00:08:34.320Z,-2.27
2023-03-01T00:13:46.990Z,-2.30
2023-03-01T00:19:03.653Z,-2.34
2023-03-01T00:24:38.488Z,-2.36
2023-03-01T00:29:41.712Z,-2.35
2023-03-01T00:34:55.199Z,-2.31
2023-03-01T00:40:15.987Z,-2.20
2023-03-01T00:45:32.735Z,-2.08
2023-03-01T00:50:46.552Z,-2.05
2023-03-01T00:55:49.822Z,-2.01
2023-03-01T01:00:59.697Z,-2.04
2023-03-01T01:06:10.405Z,-2.09
2023-03-01T01:11:37.078Z,-2.17
2023-03-01T01:16:46.926Z,-2.24
2023-03-01T01:22:10.521Z,-2.29
2023-03-01T01:27:13.795Z,-2.32
2023-03-01T01:32:30.264Z,-2.31
2023-03-01T01:38:23.278Z,-2.28
2023-03-01T01:43:55.627Z,-2.13
2023-03-01T01:49:33.864Z,-2.01
2023-03-01T01:54:51.921Z,-2.03
2023-03-01T02:00:59.664Z,-2.07
2023-03-01T02:06:24.486Z,-2.23
2023-03-01T02:12:31.738Z,-2.34
2023-03-01T02:18:00.395Z,-2.38
2023-03-01T02:23:06.919Z,-2.37
2023-03-01T02:28:34.590Z,-2.37
2023-03-01T02:34:09.635Z,-2.26
2023-03-01T02:39:46.642Z,-2.21
2023-03-01T02:44:55.038Z,-2.12
2023-03-01T02:50:08.652Z,-2.17
2023-03-01T02:55:32.326Z,-2.17
2023-03-01T03:00:52.353Z,-2.15
2023-03-01T03:06:06.207Z,-2.15
2023-03-01T03:11:19.936Z,-2.23
2023-03-01T03:16:23.924Z,-2.23
2023-03-01T03:21:28.597Z,-2.11
2023-03-01T03:26:44.881Z,-1.93
2023-03-01T03:32:33.858Z,-1.86
2023-03-01T03:38:01.616Z,-1.81
2023-03-01T03:43:19.707Z,-1.79
2023-03-01T03:48:27.072Z,-1.78
2023-03-01T03:53:30.687Z,-1.81
2023-03-01T03:59:23.620Z,-1.84
2023-03-01T04:04:56.391Z,-1.86
2023-03-01T04:10:53.408Z,-1.73
2023-03-01T04:16:20.121Z,-1.53
2023-03-01T04:21:51.806Z,-1.35
2023-03-01T04:27:35.590Z,-1.28
2023-03-01T04:33:31.899Z,-1.39
2023-03-01T04:39:46.904Z,-1.46
2023-03-01T04:45:02.762Z,-1.55
2023-03-01T04:50:24.599Z,-1.57
2023-03-01T04:55:50.376Z,-1.56
2023-03-01T05:00:54.568Z,-1.50
2023-03-01T05:06:31.779Z,-1.41
2023-03-01T05:11:55.800Z,-1.35
2023-03-01T05:17:18.983Z,-1.35
2023-03-01T05:23:08.909Z,-1.39
2023-03-01T05:28:55.774Z,-1.42
2023-03-01T05:34:07.571Z,-1.43
2023-03-01T05:39:42.866Z,-1.44
2023-03-01T05:45:14.460Z,-1.43
2023-03-01T05:51:10.728Z,-1.33
2023-03-01T05:57:25.493Z,-1.16
2023-03-01T06:02:40.109Z,-0.99
2023-03-01T06:08:15.040Z,-0.82
2023-03-01T06:13:51.186Z,-0.67
2023-03-01T06:19:14.763Z,-0.56
2023-03-01T06:24:18.016Z,-0.46
2023-03-01T06:29:21.298Z,-0.32
2023-03-01T06:34:33.223Z,-0.16
2023-03-01T06:39:36.925Z,0.13
2023-03-01T06:44:40.360Z,0.54
2023-03-01T06:49:46.824Z,0.95
2023-03-01T06:54:50.277Z,1.26
2023-03-01T06:59:53.613Z,1.53
2023-03-01T07:05:01.853Z,1.84
2023-03-01T07:10:06.369Z,2.11
2023-03-01T07:15:11.358Z,2.31
2023-03-01T07:20:26.290Z,2.56
2023-03-01T07:26:01.857Z,2.70
2023-03-01T07:31:10.002Z,3.00
2023-03-01T07:36:13.568Z,3.17
2023-03-01T07:41:19.589Z,3.35
2023-03-01T07:47:03.458Z,3.27
2023-03-01T07:52:23.157Z,3.26
2023-03-01T07:57:52.028Z,3.29
2023-03-01T08:03:18.385Z,3.28
2023-03-01T08:08:27.342Z,3.20
2023-03-01T08:13:34.058Z,3.14
2023-03-01T08:18:40.629Z,3.14
2023-03-01T08:23:45.212Z,3.37
2023-03-01T08:29:09.229Z,3.69
2023-03-01T08:34:15.898Z,3.74
2023-03-01T08:39:20.707Z,3.71
2023-03-01T08:44:24.312Z,3.77
2023-03-01T08:49:27.743Z,3.87
2023-03-01T08:54:31.598Z,3.83
2023-03-01T08:59:38.334Z,3.91
2023-03-01T09:04:51.772Z,3.99
2023-03-01T09:10:03.313Z,4.07
2023-03-01T09:15:27.058Z,4.31
2023-03-01T09:20:32.498Z,4.51
2023-03-01T09:25:46.513Z,4.67
2023-03-01T09:30:49.882Z,4.71
2023-03-01T09:36:04.192Z,4.78
2023-03-01T09:41:47.340Z,4.68
2023-03-01T09:47:17.506Z,4.68
2023-03-01T09:52:59.978Z,4.64
2023-03-01T09:58:30.884Z,4.74
2023-03-01T10:03:44.113Z,4.82
2023-03-01T10:09:01.943Z,4.81
2023-03-01T10:14:16.910Z,4.87
2023-03-01T10:20:15.607Z,4.97
2023-03-01T10:26:05.987Z,5.00
2023-03-01T10:31:16.317Z,5.04
2023-03-01T10:36:33.738Z,5.14
2023-03-01T10:41:52.946Z,5.22
2023-03-01T10:47:28.412Z,5.31
2023-03-01T10:52:59.638Z,5.38
2023-03-01T10:58:20.614Z,5.45
2023-03-01T11:03:28.644Z,5.55
2023-03-01T11:08:38.525Z,5.60
2023-03-01T11:13:53.206Z,5.71
2023-03-01T11:19:14.775Z,5.82
2023-03-01T11:24:26.628Z,5.91
2023-03-01T11:30:02.214Z,5.95
2023-03-01T11:35:37.557Z,6.04
2023-03-01T11:40:56.260Z,6.14
2023-03-01T11:46:11.849Z,6.23
2023-03-01T11:51:46.130Z,6.30
2023-03-01T11:57:16.498Z,6.24
2023-03-01T12:02:54.925Z,6.24
2023-03-01T12:08:30.494Z,6.26
2023-03-01T12:13:45.240Z,6.35
2023-03-01T12:19:23.597Z,6.43
2023-03-01T12:24:34.875Z,6.51
2023-03-01T12:29:59.967Z,6.58
2023-03-01T12:35:34.267Z,6.64
2023-03-01T12:41:20.890Z,6.72
2023-03-01T12:46:48.693Z,6.70
2023-03-01T12:52:34.342Z,6.75
2023-03-01T12:58:22.324Z,6.84
2023-03-01T13:03:57.827Z,6.95
2023-03-01T13:09:19.530Z,7.02
2023-03-01T13:14:24.088Z,7.09
2023-03-01T13:19:36.925Z,7.12
2023-03-01T13:24:42.533Z,7.11
2023-03-01T13:30:02.168Z,7.06
2023-03-01T13:35:21.014Z,7.03
2023-03-01T13:40:27.322Z,7.02
2023-03-01T13:45:42.059Z,7.03
2023-03-01T13:50:52.837Z,7.01
2023-03-01T13:56:18.764Z,6.97
2023-03-01T14:01:26.691Z,6.97
2023-03-01T14:06:33.182Z,7.06
2023-03-01T14:11:39.456Z,7.18
2023-03-01T14:17:04.449Z,7.26
2023-03-01T14:22:34.476Z,7.31
2023-03-01T14:27:43.180Z,7.30
2023-03-01T14:32:54.922Z,7.33
2023-03-01T14:37:58.764Z,7.32
2023-03-01T14:43:11.197Z,7.27
2023-03-01T14:48:15.000Z,7.25
2023-03-01T14:53:21.913Z,7.22
2023-03-01T14:58:26.793Z,7.21
2023-03-01T15:03:40.277Z,7.18
2023-03-01T15:08:48.289Z,7.09
2023-03-01T15:13:53.392Z,6.98
2023-03-01T15:19:08.238Z,6.82
2023-03-01T15:24:13.071Z,6.69
2023-03-01T15:29:21.492Z,6.64
2023-03-01T15:34:29.656Z,6.59
2023-03-01T15:39:55.120Z,6.54
2023-03-01T15:45:21.921Z,6.53
2023-03-01T15:50:27.462Z,6.53
2023-03-01T15:55:34.221Z,6.46
2023-03-01T16:01:00.864Z,6.39
2023-03-01T16:06:13.461Z,6.28
2023-03-01T16:11:20.101Z,6.13
2023-03-01T16:16:23.700Z,5.98
2023-03-01T16:21:27.317Z,5.84
2023-03-01T16:26:34.247Z,5.74
2023-03-01T16:31:40.645Z,5.70
2023-03-01T16:36:44.573Z,5.75
2023-03-01T16:41:50.895Z,5.82
2023-03-01T16:46:59.365Z,5.85
2023-03-01T16:52:03.081Z,5.83
2023-03-01T16:57:31.747Z,5.75
2023-03-01T17:02:35.950Z,5.67
2023-03-01T17:07:40.110Z,5.59
2023-03-01T17:12:43.604Z,5.54
2023-03-01T17:18:00.667Z,5.47
2023-03-01T17:23:10.345Z,5.48
2023-03-01T17:28:14.902Z,5.46
2023-03-01T17:33:21.374Z,5.42
2023-03-01T17:38:28.006Z,5.35
2023-03-01T17:43:35.313Z,5.24
2023-03-01T17:48:39.696Z,5.05
2023-03-01T17:53:48.343Z,4.84
2023-03-01T17:58:57.474Z,4.60
2023-03-01T18:04:34.287Z,4.35
2023-03-01T18:09:57.815Z,4.03
2023-03-01T18:15:04.061Z,3.88
2023-03-01T18:20:10.614Z,3.78
2023-03-01T18:25:16.382Z,3.67
2023-03-01T18:30:22.601Z,3.44
2023-03-01T18:35:26.143Z,3.28
2023-03-01T18:40:32.103Z,3.23
2023-03-01T18:45:38.808Z,3.20
2023-03-01T18:50:42.882Z,3.20
2023-03-01T18:56:01.398Z,3.19
2023-03-01T19:01:08.427Z,3.25
2023-03-01T19:06:36.807Z,3.23
2023-03-01T19:11:42.747Z,3.09
2023-03-01T19:16:46.127Z,3.02
2023-03-01T19:22:20.010Z,3.01
2023-03-01T19:27:26.410Z,2.99
2023-03-01T19:32:41.211Z,2.81
2023-03-01T19:37:44.577Z,2.68
2023-03-01T19:42:58.950Z,2.57
2023-03-01T19:48:02.429Z,2.48
2023-03-01T19:53:26.234Z,2.40
2023-03-01T19:58:31.558Z,2.32
2023-03-01T20:03:35.976Z,2.25
2023-03-01T20:08:45.286Z,2.11
2023-03-01T20:13:50.994Z,1.97
2023-03-01T20:19:01.848Z,1.83
2023-03-01T20:24:24.917Z,1.69
2023-03-01T20:29:28.342Z,1.65
2023-03-01T20:35:02.209Z,1.71
2023-03-01T20:40:06.381Z,1.68
2023-03-01T20:45:20.049Z,1.65
2023-03-01T20:50:23.607Z,1.58
2023-03-01T20:55:26.892Z,1.57
2023-03-01T21:00:43.066Z,1.55
2023-03-01T21:05:58.748Z,1.48
2023-03-01T21:11:07.536Z,1.36
2023-03-01T21:16:32.677Z,1.37
2023-03-01T21:21:38.858Z,1.33
2023-03-01T21:26:53.625Z,1.29
2023-03-01T21:32:27.168Z,1.23
2023-03-01T21:38:31.681Z,1.21
2023-03-01T21:43:47.084Z,1.18
2023-03-01T21:49:24.144Z,1.00
2023-03-01T21:54:55.518Z,0.92
2023-03-01T22:00:39.850Z,0.92
2023-03-01T22:06:06.882Z,0.96
2023-03-01T22:11:32.173Z,0.93
2023-03-01T22:16:51.388Z,0.94
2023-03-01T22:22:36.667Z,0.94
2023-03-01T22:27:47.167Z,0.87
2023-03-01T22:33:00.598Z,0.81
2023-03-01T22:38:10.133Z,0.71
2023-03-01T22:43:13.443Z,0.65
2023-03-01T22:48:19.396Z,0.65
2023-03-01T22:53:22.765Z,0.71
2023-03-01T22:58:26.177Z,0.75
2023-03-01T23:03:29.396Z,0.75
2023-03-01T23:08:35.905Z,0.71
2023-03-01T23:13:50.149Z,0.64
2023-03-01T23:19:16.110Z,0.56
2023-03-01T23:24:44.472Z,0.45
2023-03-01T23:29:48.031Z,0.38
2023-03-01T23:34:53.839Z,0.44
2023-03-01T23:39:57.838Z,0.47
2023-03-01T23:45:01.296Z,0.46
2023-03-01T23:50:24.974Z,0.45
2023-03-01T23:56:49.384Z,0.39
